Airport ID:KGOO
Update Time (UTC):20/01/2022 16:13
Wind Speed (Knots):0
Wind Direction (Magnetic):130
Temperature (°C):8
Dew Point (°C):-4
Humidity (%):40
Altimeter (inHg):30.33
Density Altitude (Feet):
Visibility:10+
Clouds (Hundreds of feet):CLR
Present Weather:
METAR:METAR KGOO 201610Z AUTO 00000KT 10SM CLR 08/M04 A3032 RMK A01

The data displayed is for advisory purposes only and is not to be used for flight planning or operations.